Terminal Aerodrome Forecast
Issued by NWS

Home | Current Version | Previous Version | Text Only | Print | Product List | Glossary On
Versions: 1 2 3 4 5 6 7 8 9 10 11 12 13 14 15 16 17 18 19 20 21 22
000
FTUS44 KSJT 220520
TAFJCT
TAF
KJCT 220520Z 2206/2306 03006KT 3SM BR OVC004
     FM221200 04005KT 6SM BR VCSH OVC005
     FM222000 03005KT P6SM OVC005
     FM230200 VRB04KT 5SM BR OVC005
      AMD NOT SKED=

USA.gov is the U.S. government's official web portal to all federal, state and local government web resources and services.